BIAR

Akureyri Airport

Akureyri, Iceland
METAR BIAR 241100Z 18024G34KT 9999 -RA SCT040 BKN078 08/04 Q1003
Observed Flight Rules
Sep-24 @ 11:00 UTC (33 minutes ago) Visual Flight Rules
Wind Visibility Clouds Conditions
180° at 24 knots
 Gusting to 34 knots
10,000+ meters
  • Scattered at 4,000' AGL
  • Broken at 7,800' AGL
  • Light Rain
Temperatures Readings
Current 8°C / 46°F
Dewpoint 4°C / 39°F
Humidity 76%
Altimeter 29.62" Hg
Pressure 1003 hPa
Elevation 27
METAR BIAR 241100Z 18024G34KT 9999 -RA SCT040 BKN078 08/04 Q1003
Observed Flight Rules
Sep-24 @ 11:00 UTC
(33 minutes ago)
VFR
Wind Visibility
180° at 24 knots
 Gusting to 34 knots
10,000+ meters
Clouds
  • Scattered at 4,000' AGL
  • Broken at 7,800' AGL
Conditions
  • Light Rain
Temperature Dewpoint
8°C / 46°F 4°C / 39°F
Humidity Altimeter Pressure
76% 29.62" Hg 1003 hPa